sensor_id;sensor_type;location;lat;lon;timestamp;pressure;altitude;pressure_sealevel;temperature;humidity
788;BME280;16074;42.708;23.312;2022-12-29T00:01:11;139865.69;;;6.44;99.48
788;BME280;16074;42.708;23.312;2022-12-29T00:03:39;139845.31;;;6.36;100.00
788;BME280;16074;42.708;23.312;2022-12-29T00:06:08;139850.13;;;6.38;100.00
788;BME280;16074;42.708;23.312;2022-12-29T00:08:36;139864.53;;;6.44;100.00
788;BME280;16074;42.708;23.312;2022-12-29T00:11:09;139876.53;;;6.49;100.00
788;BME280;16074;42.708;23.312;2022-12-29T00:13:37;139884.91;;;6.52;100.00
788;BME280;16074;42.708;23.312;2022-12-29T00:16:26;139881.31;;;6.51;100.00
788;BME280;16074;42.708;23.312;2022-12-29T00:18:54;139882.50;;;6.51;100.00
788;BME280;16074;42.708;23.312;2022-12-29T00:21:23;139884.91;;;6.52;100.00
788;BME280;16074;42.708;23.312;2022-12-29T00:24:12;139892.09;;;6.55;100.00
788;BME280;16074;42.708;23.312;2022-12-29T00:27:08;139923.28;;;6.68;100.00
788;BME280;16074;42.708;23.312;2022-12-29T00:29:55;139910.06;;;6.63;99.92
788;BME280;16074;42.708;23.312;2022-12-29T00:32:42;139902.88;;;6.60;100.00
788;BME280;16074;42.708;23.312;2022-12-29T00:35:29;139899.28;;;6.58;100.00
788;BME280;16074;42.708;23.312;2022-12-29T00:38:02;139889.69;;;6.54;100.00
788;BME280;16074;42.708;23.312;2022-12-29T00:40:51;139904.09;;;6.60;100.00
788;BME280;16074;42.708;23.312;2022-12-29T00:43:36;139914.88;;;6.65;100.00
788;BME280;16074;42.708;23.312;2022-12-29T00:46:22;139920.91;;;6.67;99.37
788;BME280;16074;42.708;23.312;2022-12-29T00:48:52;139913.69;;;6.64;100.00
788;BME280;16074;42.708;23.312;2022-12-29T00:51:38;139920.91;;;6.67;100.00
788;BME280;16074;42.708;23.312;2022-12-29T00:54:06;139928.09;;;6.70;100.00
788;BME280;16074;42.708;23.312;2022-12-29T00:56:35;139935.28;;;6.73;100.00
788;BME280;16074;42.708;23.312;2022-12-29T00:59:05;139944.91;;;6.77;100.00
788;BME280;16074;42.708;23.312;2022-12-29T01:01:35;139953.28;;;6.81;100.00
788;BME280;16074;42.708;23.312;2022-12-29T01:04:05;139960.47;;;6.84;100.00
788;BME280;16074;42.708;23.312;2022-12-29T01:06:35;139960.47;;;6.84;100.00
788;BME280;16074;42.708;23.312;2022-12-29T01:09:05;139961.66;;;6.84;100.00
788;BME280;16074;42.708;23.312;2022-12-29T01:11:51;139962.88;;;6.85;100.00
788;BME280;16074;42.708;23.312;2022-12-29T01:14:20;139971.25;;;6.88;100.00
788;BME280;16074;42.708;23.312;2022-12-29T01:16:49;139970.06;;;6.88;100.00
788;BME280;16074;42.708;23.312;2022-12-29T01:19:19;139973.66;;;6.89;99.68
788;BME280;16074;42.708;23.312;2022-12-29T01:21:48;139965.28;;;6.86;99.51
788;BME280;16074;42.708;23.312;2022-12-29T01:24:19;139970.06;;;6.88;98.87
788;BME280;16074;42.708;23.312;2022-12-29T01:26:48;139970.06;;;6.88;98.47
788;BME280;16074;42.708;23.312;2022-12-29T01:29:17;139952.03;;;6.80;98.74
788;BME280;16074;42.708;23.312;2022-12-29T01:31:45;139931.66;;;6.72;99.03
788;BME280;16074;42.708;23.312;2022-12-29T01:34:13;139918.50;;;6.66;98.69
788;BME280;16074;42.708;23.312;2022-12-29T01:36:43;139935.28;;;6.73;97.63
788;BME280;16074;42.708;23.312;2022-12-29T01:39:12;139926.88;;;6.70;98.65
788;BME280;16074;42.708;23.312;2022-12-29T01:41:42;139913.69;;;6.64;98.66
788;BME280;16074;42.708;23.312;2022-12-29T01:47:12;139883.66;;;6.52;99.17
788;BME280;16074;42.708;23.312;2022-12-29T01:49:41;139877.69;;;6.49;99.76
788;BME280;16074;42.708;23.312;2022-12-29T01:52:10;139858.50;;;6.41;99.68
788;BME280;16074;42.708;23.312;2022-12-29T01:54:43;139860.91;;;6.42;100.00
788;BME280;16074;42.708;23.312;2022-12-29T01:57:14;139880.09;;;6.50;99.86
788;BME280;16074;42.708;23.312;2022-12-29T01:59:49;139864.53;;;6.44;100.00
788;BME280;16074;42.708;23.312;2022-12-29T02:02:19;139834.50;;;6.31;100.00
788;BME280;16074;42.708;23.312;2022-12-29T02:04:47;139828.53;;;6.29;100.00
788;BME280;16074;42.708;23.312;2022-12-29T02:07:19;139832.09;;;6.30;100.00
788;BME280;16074;42.708;23.312;2022-12-29T02:09:50;139838.13;;;6.33;100.00
788;BME280;16074;42.708;23.312;2022-12-29T02:12:21;139846.50;;;6.36;100.00
788;BME280;16074;42.708;23.312;2022-12-29T02:14:54;139847.72;;;6.37;100.00
788;BME280;16074;42.708;23.312;2022-12-29T02:17:37;139844.09;;;6.35;100.00
788;BME280;16074;42.708;23.312;2022-12-29T02:20:28;139815.31;;;6.23;100.00
788;BME280;16074;42.708;23.312;2022-12-29T02:23:23;139751.78;;;5.97;100.00
788;BME280;16074;42.708;23.312;2022-12-29T02:26:27;139790.16;;;6.13;100.00
788;BME280;16074;42.708;23.312;2022-12-29T02:32:07;139797.34;;;6.16;100.00
788;BME280;16074;42.708;23.312;2022-12-29T02:34:47;139790.16;;;6.13;99.98
788;BME280;16074;42.708;23.312;2022-12-29T02:37:22;139778.16;;;6.08;100.00
788;BME280;16074;42.708;23.312;2022-12-29T02:39:59;139796.19;;;6.15;100.00
788;BME280;16074;42.708;23.312;2022-12-29T02:42:35;139786.56;;;6.11;100.00
788;BME280;16074;42.708;23.312;2022-12-29T02:45:07;139792.56;;;6.14;99.79
788;BME280;16074;42.708;23.312;2022-12-29T02:47:48;139779.38;;;6.08;99.61
788;BME280;16074;42.708;23.312;2022-12-29T02:50:22;139781.78;;;6.09;99.64
788;BME280;16074;42.708;23.312;2022-12-29T02:52:54;139803.38;;;6.18;99.83
788;BME280;16074;42.708;23.312;2022-12-29T02:55:25;139808.16;;;6.20;100.00
788;BME280;16074;42.708;23.312;2022-12-29T02:58:12;139822.50;;;6.26;100.00
788;BME280;16074;42.708;23.312;2022-12-29T03:00:53;139834.50;;;6.31;99.31
788;BME280;16074;42.708;23.312;2022-12-29T03:03:34;139847.72;;;6.37;99.46
788;BME280;16074;42.708;23.312;2022-12-29T03:06:23;139858.50;;;6.41;100.00
788;BME280;16074;42.708;23.312;2022-12-29T03:09:00;139858.50;;;6.41;100.00
788;BME280;16074;42.708;23.312;2022-12-29T03:11:48;139870.50;;;6.46;99.81
788;BME280;16074;42.708;23.312;2022-12-29T03:14:47;139888.47;;;6.54;100.00
788;BME280;16074;42.708;23.312;2022-12-29T03:17:43;139889.69;;;6.54;100.00
788;BME280;16074;42.708;23.312;2022-12-29T03:20:18;139895.66;;;6.57;99.57
788;BME280;16074;42.708;23.312;2022-12-29T03:22:51;139892.09;;;6.55;99.45
788;BME280;16074;42.708;23.312;2022-12-29T03:25:25;139887.28;;;6.53;99.33
788;BME280;16074;42.708;23.312;2022-12-29T03:27:58;139878.91;;;6.50;99.24
788;BME280;16074;42.708;23.312;2022-12-29T03:30:34;139868.09;;;6.45;99.67
788;BME280;16074;42.708;23.312;2022-12-29T03:33:08;139853.69;;;6.39;99.48
788;BME280;16074;42.708;23.312;2022-12-29T03:35:42;139840.53;;;6.34;99.50
788;BME280;16074;42.708;23.312;2022-12-29T03:38:15;139808.16;;;6.20;99.22
788;BME280;16074;42.708;23.312;2022-12-29T03:40:50;139784.19;;;6.10;98.85
788;BME280;16074;42.708;23.312;2022-12-29T03:43:22;139782.97;;;6.10;99.10
788;BME280;16074;42.708;23.312;2022-12-29T03:45:51;139768.56;;;6.04;99.13
788;BME280;16074;42.708;23.312;2022-12-29T03:48:19;139755.41;;;5.98;99.42
788;BME280;16074;42.708;23.312;2022-12-29T03:50:50;139741.00;;;5.92;99.60
788;BME280;16074;42.708;23.312;2022-12-29T03:53:19;139724.22;;;5.86;99.26
788;BME280;16074;42.708;23.312;2022-12-29T03:55:48;139701.41;;;5.76;99.97
788;BME280;16074;42.708;23.312;2022-12-29T03:58:16;139655.88;;;5.57;100.00
788;BME280;16074;42.708;23.312;2022-12-29T04:01:07;139642.72;;;5.52;100.00
788;BME280;16074;42.708;23.312;2022-12-29T04:03:37;139630.72;;;5.47;100.00
788;BME280;16074;42.708;23.312;2022-12-29T04:06:08;139615.13;;;5.40;100.00
788;BME280;16074;42.708;23.312;2022-12-29T04:08:59;139582.78;;;5.27;100.00
788;BME280;16074;42.708;23.312;2022-12-29T04:11:31;139567.22;;;5.20;100.00
788;BME280;16074;42.708;23.312;2022-12-29T04:14:02;139561.22;;;5.18;100.00
788;BME280;16074;42.708;23.312;2022-12-29T04:16:32;139555.25;;;5.15;100.00
788;BME280;16074;42.708;23.312;2022-12-29T04:19:04;139531.28;;;5.05;100.00
788;BME280;16074;42.708;23.312;2022-12-29T04:21:36;139527.72;;;5.04;100.00
788;BME280;16074;42.708;23.312;2022-12-29T04:24:05;139494.16;;;4.90;100.00
788;BME280;16074;42.708;23.312;2022-12-29T04:26:39;139497.75;;;4.91;100.00
788;BME280;16074;42.708;23.312;2022-12-29T04:29:23;139480.97;;;4.84;100.00
788;BME280;16074;42.708;23.312;2022-12-29T04:32:15;139448.66;;;4.71;100.00
788;BME280;16074;42.708;23.312;2022-12-29T04:34:48;139465.41;;;4.78;100.00
788;BME280;16074;42.708;23.312;2022-12-29T04:37:19;139473.81;;;4.81;100.00
788;BME280;16074;42.708;23.312;2022-12-29T04:39:47;139464.25;;;4.77;100.00
788;BME280;16074;42.708;23.312;2022-12-29T04:42:16;139461.84;;;4.76;100.00
788;BME280;16074;42.708;23.312;2022-12-29T04:44:45;139453.44;;;4.73;100.00
788;BME280;16074;42.708;23.312;2022-12-29T04:47:43;139443.88;;;4.69;100.00
788;BME280;16074;42.708;23.312;2022-12-29T04:50:39;139446.25;;;4.70;100.00
788;BME280;16074;42.708;23.312;2022-12-29T04:53:20;139454.66;;;4.73;100.00
788;BME280;16074;42.708;23.312;2022-12-29T04:55:49;139443.88;;;4.69;100.00
788;BME280;16074;42.708;23.312;2022-12-29T04:58:18;139437.91;;;4.67;100.00
788;BME280;16074;42.708;23.312;2022-12-29T05:00:50;139437.91;;;4.67;100.00
788;BME280;16074;42.708;23.312;2022-12-29T05:03:22;139437.91;;;4.67;100.00
788;BME280;16074;42.708;23.312;2022-12-29T05:05:53;139443.88;;;4.69;100.00
788;BME280;16074;42.708;23.312;2022-12-29T05:08:23;139455.84;;;4.74;100.00
788;BME280;16074;42.708;23.312;2022-12-29T05:10:57;139457.06;;;4.74;100.00
788;BME280;16074;42.708;23.312;2022-12-29T05:13:26;139464.25;;;4.77;100.00
788;BME280;16074;42.708;23.312;2022-12-29T05:15:54;139453.44;;;4.73;100.00
788;BME280;16074;42.708;23.312;2022-12-29T05:18:23;139461.84;;;4.76;100.00
788;BME280;16074;42.708;23.312;2022-12-29T05:20:51;139466.63;;;4.78;100.00
788;BME280;16074;42.708;23.312;2022-12-29T05:23:23;139442.69;;;4.68;100.00
788;BME280;16074;42.708;23.312;2022-12-29T05:25:59;139459.44;;;4.75;100.00
788;BME280;16074;42.708;23.312;2022-12-29T05:28:47;139498.97;;;4.92;100.00
788;BME280;16074;42.708;23.312;2022-12-29T05:31:19;139518.13;;;5.00;100.00
788;BME280;16074;42.708;23.312;2022-12-29T05:33:48;139520.53;;;5.01;100.00
788;BME280;16074;42.708;23.312;2022-12-29T05:36:16;139544.44;;;5.11;100.00
788;BME280;16074;42.708;23.312;2022-12-29T05:38:53;139545.66;;;5.11;100.00
788;BME280;16074;42.708;23.312;2022-12-29T05:41:22;139549.22;;;5.13;100.00
788;BME280;16074;42.708;23.312;2022-12-29T05:44:06;139578.00;;;5.25;100.00
788;BME280;16074;42.708;23.312;2022-12-29T05:47:09;139606.75;;;5.37;100.00
788;BME280;16074;42.708;23.312;2022-12-29T05:49:56;139586.41;;;5.28;100.00
788;BME280;16074;42.708;23.312;2022-12-29T05:52:43;139587.56;;;5.29;100.00
788;BME280;16074;42.708;23.312;2022-12-29T05:55:13;139588.78;;;5.29;100.00
788;BME280;16074;42.708;23.312;2022-12-29T05:57:44;139615.13;;;5.40;100.00
788;BME280;16074;42.708;23.312;2022-12-29T06:00:15;139630.72;;;5.47;100.00
788;BME280;16074;42.708;23.312;2022-12-29T06:02:45;139652.28;;;5.56;100.00
788;BME280;16074;42.708;23.312;2022-12-29T06:05:16;139663.06;;;5.60;100.00
788;BME280;16074;42.708;23.312;2022-12-29T06:07:44;139681.00;;;5.68;100.00
788;BME280;16074;42.708;23.312;2022-12-29T06:10:17;139695.41;;;5.74;100.00
788;BME280;16074;42.708;23.312;2022-12-29T06:13:02;139706.25;;;5.78;100.00
788;BME280;16074;42.708;23.312;2022-12-29T06:15:36;139718.25;;;5.83;100.00
788;BME280;16074;42.708;23.312;2022-12-29T06:18:06;139729.03;;;5.88;100.00
788;BME280;16074;42.708;23.312;2022-12-29T06:20:45;139750.59;;;5.96;100.00
788;BME280;16074;42.708;23.312;2022-12-29T06:23:15;139768.56;;;6.04;100.00
788;BME280;16074;42.708;23.312;2022-12-29T06:25:48;139787.75;;;6.12;100.00
788;BME280;16074;42.708;23.312;2022-12-29T06:28:16;139790.16;;;6.13;100.00
788;BME280;16074;42.708;23.312;2022-12-29T06:30:45;139797.34;;;6.16;100.00
788;BME280;16074;42.708;23.312;2022-12-29T06:33:13;139817.72;;;6.24;100.00
788;BME280;16074;42.708;23.312;2022-12-29T06:35:44;139830.94;;;6.30;100.00
788;BME280;16074;42.708;23.312;2022-12-29T06:38:14;139829.72;;;6.29;100.00
788;BME280;16074;42.708;23.312;2022-12-29T06:40:42;139829.72;;;6.29;100.00
788;BME280;16074;42.708;23.312;2022-12-29T06:43:31;139824.91;;;6.27;99.94
788;BME280;16074;42.708;23.312;2022-12-29T06:46:08;139863.31;;;6.43;100.00
788;BME280;16074;42.708;23.312;2022-12-29T06:48:36;139866.91;;;6.45;100.00
788;BME280;16074;42.708;23.312;2022-12-29T06:51:04;139895.66;;;6.57;100.00
788;BME280;16074;42.708;23.312;2022-12-29T06:53:32;139943.66;;;6.77;99.70
788;BME280;16074;42.708;23.312;2022-12-29T06:56:01;139964.06;;;6.85;98.79
788;BME280;16074;42.708;23.312;2022-12-29T06:58:30;140006.09;;;7.03;97.91
788;BME280;16074;42.708;23.312;2022-12-29T07:00:59;140004.84;;;7.02;95.62
788;BME280;16074;42.708;23.312;2022-12-29T07:03:27;140026.47;;;7.11;95.24
788;BME280;16074;42.708;23.312;2022-12-29T07:05:55;140030.03;;;7.12;94.20
788;BME280;16074;42.708;23.312;2022-12-29T07:08:24;140037.25;;;7.15;93.75
788;BME280;16074;42.708;23.312;2022-12-29T07:10:53;140080.47;;;7.33;93.38
788;BME280;16074;42.708;23.312;2022-12-29T07:13:21;140026.47;;;7.11;91.77
788;BME280;16074;42.708;23.312;2022-12-29T07:15:51;140087.69;;;7.36;92.27
788;BME280;16074;42.708;23.312;2022-12-29T07:18:19;140102.09;;;7.42;90.94
788;BME280;16074;42.708;23.312;2022-12-29T07:20:47;140162.09;;;7.67;91.41
788;BME280;16074;42.708;23.312;2022-12-29T07:23:15;140202.94;;;7.84;89.93
788;BME280;16074;42.708;23.312;2022-12-29T07:25:44;140256.97;;;8.07;87.88
788;BME280;16074;42.708;23.312;2022-12-29T07:28:13;140309.91;;;8.28;87.14
788;BME280;16074;42.708;23.312;2022-12-29T07:30:43;140374.75;;;8.55;85.73
788;BME280;16074;42.708;23.312;2022-12-29T07:33:15;140461.34;;;8.91;84.17
788;BME280;16074;42.708;23.312;2022-12-29T07:35:43;140547.88;;;9.27;82.71
788;BME280;16074;42.708;23.312;2022-12-29T07:38:11;140616.44;;;9.55;80.89
788;BME280;16074;42.708;23.312;2022-12-29T07:40:40;140656.13;;;9.72;77.12
788;BME280;16074;42.708;23.312;2022-12-29T07:43:08;140760.88;;;10.15;76.79
788;BME280;16074;42.708;23.312;2022-12-29T07:45:42;140757.31;;;10.14;74.06
788;BME280;16074;42.708;23.312;2022-12-29T07:48:11;140862.00;;;10.57;75.58
788;BME280;16074;42.708;23.312;2022-12-29T07:50:40;140883.69;;;10.66;71.52
788;BME280;16074;42.708;23.312;2022-12-29T07:53:08;140959.56;;;10.97;71.82
788;BME280;16074;42.708;23.312;2022-12-29T07:55:37;141015.00;;;11.20;69.36
788;BME280;16074;42.708;23.312;2022-12-29T07:58:05;141057.16;;;11.38;67.94
788;BME280;16074;42.708;23.312;2022-12-29T08:00:34;141128.31;;;11.67;67.04
788;BME280;16074;42.708;23.312;2022-12-29T08:03:02;141131.91;;;11.69;66.24
788;BME280;16074;42.708;23.312;2022-12-29T08:05:31;141118.66;;;11.63;65.07
788;BME280;16074;42.708;23.312;2022-12-29T08:08:01;141092.09;;;11.52;65.77
788;BME280;16074;42.708;23.312;2022-12-29T08:10:29;141094.50;;;11.53;65.51
788;BME280;16074;42.708;23.312;2022-12-29T08:12:58;141089.69;;;11.51;65.18
788;BME280;16074;42.708;23.312;2022-12-29T08:15:26;141019.81;;;11.22;65.33
788;BME280;16074;42.708;23.312;2022-12-29T08:17:58;141005.34;;;11.16;65.90
788;BME280;16074;42.708;23.312;2022-12-29T08:20:26;140982.44;;;11.07;67.38
788;BME280;16074;42.708;23.312;2022-12-29T08:22:55;140988.47;;;11.09;67.14
788;BME280;16074;42.708;23.312;2022-12-29T08:25:24;140958.38;;;10.97;67.55
788;BME280;16074;42.708;23.312;2022-12-29T08:27:52;140963.19;;;10.99;67.67
788;BME280;16074;42.708;23.312;2022-12-29T08:30:20;141008.94;;;11.18;67.12
788;BME280;16074;42.708;23.312;2022-12-29T08:32:49;141037.88;;;11.30;66.61
788;BME280;16074;42.708;23.312;2022-12-29T08:35:18;141054.75;;;11.37;66.70
788;BME280;16074;42.708;23.312;2022-12-29T08:37:46;141088.50;;;11.51;65.73
788;BME280;16074;42.708;23.312;2022-12-29T08:40:14;141182.53;;;11.89;64.86
788;BME280;16074;42.708;23.312;2022-12-29T08:42:44;141231.97;;;12.10;63.72
788;BME280;16074;42.708;23.312;2022-12-29T08:45:13;141242.84;;;12.14;62.70
788;BME280;16074;42.708;23.312;2022-12-29T08:47:41;141285.06;;;12.32;62.83
788;BME280;16074;42.708;23.312;2022-12-29T08:50:09;141322.44;;;12.47;61.30
788;BME280;16074;42.708;23.312;2022-12-29T08:52:38;141373.13;;;12.68;61.61
788;BME280;16074;42.708;23.312;2022-12-29T08:55:06;141399.63;;;12.79;59.76
788;BME280;16074;42.708;23.312;2022-12-29T08:57:35;141454.00;;;13.02;60.29
788;BME280;16074;42.708;23.312;2022-12-29T09:00:12;141498.66;;;13.20;59.69
788;BME280;16074;42.708;23.312;2022-12-29T09:02:41;141460.03;;;13.04;58.46
788;BME280;16074;42.708;23.312;2022-12-29T09:05:10;141432.28;;;12.93;58.00
788;BME280;16074;42.708;23.312;2022-12-29T09:07:39;141440.72;;;12.96;58.54
788;BME280;16074;42.708;23.312;2022-12-29T09:10:08;141478.13;;;13.11;59.12
788;BME280;16074;42.708;23.312;2022-12-29T09:12:36;141493.84;;;13.18;58.72
788;BME280;16074;42.708;23.312;2022-12-29T09:15:06;141449.19;;;13.00;59.31
788;BME280;16074;42.708;23.312;2022-12-29T09:17:36;141427.47;;;12.91;59.10
788;BME280;16074;42.708;23.312;2022-12-29T09:20:14;141473.28;;;13.09;58.75
788;BME280;16074;42.708;23.312;2022-12-29T09:22:43;141540.91;;;13.37;58.26
788;BME280;16074;42.708;23.312;2022-12-29T09:25:13;141602.47;;;13.63;57.13
788;BME280;16074;42.708;23.312;2022-12-29T09:27:41;141659.22;;;13.86;56.61
788;BME280;16074;42.708;23.312;2022-12-29T09:30:12;141687.00;;;13.98;55.91
788;BME280;16074;42.708;23.312;2022-12-29T09:32:42;141713.59;;;14.09;54.79
788;BME280;16074;42.708;23.312;2022-12-29T09:35:20;141709.97;;;14.07;55.25
788;BME280;16074;42.708;23.312;2022-12-29T09:37:49;141641.13;;;13.79;55.48
788;BME280;16074;42.708;23.312;2022-12-29T09:40:24;141658.03;;;13.86;55.20
788;BME280;16074;42.708;23.312;2022-12-29T09:43:16;141668.91;;;13.90;55.18
788;BME280;16074;42.708;23.312;2022-12-29T09:45:55;141719.66;;;14.11;55.59
788;BME280;16074;42.708;23.312;2022-12-29T09:48:32;141749.88;;;14.24;53.93
788;BME280;16074;42.708;23.312;2022-12-29T09:51:08;141813.94;;;14.50;53.70
788;BME280;16074;42.708;23.312;2022-12-29T09:53:41;141885.25;;;14.79;53.68
788;BME280;16074;42.708;23.312;2022-12-29T09:56:15;141943.25;;;15.03;52.12
788;BME280;16074;42.708;23.312;2022-12-29T09:58:50;141963.81;;;15.12;51.81
788;BME280;16074;42.708;23.312;2022-12-29T10:01:26;142055.78;;;15.50;50.90
788;BME280;16074;42.708;23.312;2022-12-29T10:03:59;142075.13;;;15.57;51.20
788;BME280;16074;42.708;23.312;2022-12-29T10:06:33;142148.94;;;15.88;49.93
788;BME280;16074;42.708;23.312;2022-12-29T10:09:33;142182.81;;;16.02;49.02
788;BME280;16074;42.708;23.312;2022-12-29T10:12:11;142202.19;;;16.10;49.14
788;BME280;16074;42.708;23.312;2022-12-29T10:14:57;142267.56;;;16.37;48.80
788;BME280;16074;42.708;23.312;2022-12-29T10:17:30;142282.09;;;16.43;48.29
788;BME280;16074;42.708;23.312;2022-12-29T10:20:23;142282.09;;;16.43;48.26
788;BME280;16074;42.708;23.312;2022-12-29T10:23:07;142196.13;;;16.07;49.17
788;BME280;16074;42.708;23.312;2022-12-29T10:25:41;142245.72;;;16.28;49.29
788;BME280;16074;42.708;23.312;2022-12-29T10:28:18;142211.88;;;16.14;49.67
788;BME280;16074;42.708;23.312;2022-12-29T10:30:49;142210.66;;;16.13;49.65
788;BME280;16074;42.708;23.312;2022-12-29T10:33:21;142150.13;;;15.88;49.57
788;BME280;16074;42.708;23.312;2022-12-29T10:35:52;142136.81;;;15.83;49.94
788;BME280;16074;42.708;23.312;2022-12-29T10:38:25;142094.50;;;15.65;49.30
788;BME280;16074;42.708;23.312;2022-12-29T10:40:59;142078.75;;;15.59;50.62
788;BME280;16074;42.708;23.312;2022-12-29T10:43:30;142070.28;;;15.55;50.95
788;BME280;16074;42.708;23.312;2022-12-29T10:46:02;142052.16;;;15.48;50.72
788;BME280;16074;42.708;23.312;2022-12-29T10:48:34;141985.59;;;15.21;51.41
788;BME280;16074;42.708;23.312;2022-12-29T10:51:06;142017.06;;;15.34;51.02
788;BME280;16074;42.708;23.312;2022-12-29T10:53:40;142013.44;;;15.32;50.98
788;BME280;16074;42.708;23.312;2022-12-29T10:56:15;141985.59;;;15.21;52.08
788;BME280;16074;42.708;23.312;2022-12-29T10:58:50;141986.78;;;15.21;51.87
788;BME280;16074;42.708;23.312;2022-12-29T11:01:19;142024.31;;;15.37;51.83
788;BME280;16074;42.708;23.312;2022-12-29T11:03:54;142058.19;;;15.51;51.91
788;BME280;16074;42.708;23.312;2022-12-29T11:06:28;142119.88;;;15.76;50.95
788;BME280;16074;42.708;23.312;2022-12-29T11:08:58;142146.50;;;15.87;50.39
788;BME280;16074;42.708;23.312;2022-12-29T11:11:34;142182.81;;;16.02;50.45
788;BME280;16074;42.708;23.312;2022-12-29T11:14:12;142217.91;;;16.16;49.68
788;BME280;16074;42.708;23.312;2022-12-29T11:16:41;142240.88;;;16.26;49.01
788;BME280;16074;42.708;23.312;2022-12-29T11:19:21;142244.53;;;16.27;49.16
788;BME280;16074;42.708;23.312;2022-12-29T11:21:52;142266.38;;;16.36;48.84
788;BME280;16074;42.708;23.312;2022-12-29T11:24:24;142324.47;;;16.60;48.25
788;BME280;16074;42.708;23.312;2022-12-29T11:26:54;142349.94;;;16.71;47.49
788;BME280;16074;42.708;23.312;2022-12-29T11:29:25;142387.47;;;16.86;47.82
788;BME280;16074;42.708;23.312;2022-12-29T11:31:56;142439.53;;;17.07;46.73
788;BME280;16074;42.708;23.312;2022-12-29T11:34:30;142449.22;;;17.11;47.71
788;BME280;16074;42.708;23.312;2022-12-29T11:37:03;142441.97;;;17.08;47.38
788;BME280;16074;42.708;23.312;2022-12-29T11:39:37;142491.63;;;17.29;46.50
788;BME280;16074;42.708;23.312;2022-12-29T11:42:14;142507.41;;;17.35;45.84
788;BME280;16074;42.708;23.312;2022-12-29T11:44:45;142511.06;;;17.37;46.67
788;BME280;16074;42.708;23.312;2022-12-29T11:47:23;142554.69;;;17.55;45.89
788;BME280;16074;42.708;23.312;2022-12-29T11:49:55;142536.47;;;17.47;46.45
788;BME280;16074;42.708;23.312;2022-12-29T11:52:28;142541.34;;;17.49;46.12
788;BME280;16074;42.708;23.312;2022-12-29T11:54:57;142508.63;;;17.36;45.98
788;BME280;16074;42.708;23.312;2022-12-29T11:57:27;142457.69;;;17.15;46.21
788;BME280;16074;42.708;23.312;2022-12-29T11:59:58;142463.78;;;17.17;46.24
788;BME280;16074;42.708;23.312;2022-12-29T12:02:45;142313.59;;;16.56;47.67
788;BME280;16074;42.708;23.312;2022-12-29T12:05:22;142382.63;;;16.84;47.33
788;BME280;16074;42.708;23.312;2022-12-29T12:07:58;142330.56;;;16.63;47.49
788;BME280;16074;42.708;23.312;2022-12-29T12:10:31;142363.22;;;16.76;47.50
788;BME280;16074;42.708;23.312;2022-12-29T12:13:10;142341.44;;;16.67;48.05
788;BME280;16074;42.708;23.312;2022-12-29T12:15:47;142273.66;;;16.39;48.48
788;BME280;16074;42.708;23.312;2022-12-29T12:18:32;142255.41;;;16.32;49.01
788;BME280;16074;42.708;23.312;2022-12-29T12:21:08;142265.16;;;16.36;48.75
788;BME280;16074;42.708;23.312;2022-12-29T12:23:48;142246.97;;;16.28;48.54
788;BME280;16074;42.708;23.312;2022-12-29T12:26:28;142152.53;;;15.89;49.77
788;BME280;16074;42.708;23.312;2022-12-29T12:29:04;142147.69;;;15.87;50.25
788;BME280;16074;42.708;23.312;2022-12-29T12:31:44;142142.91;;;15.85;49.83
788;BME280;16074;42.708;23.312;2022-12-29T12:34:19;142095.69;;;15.66;50.78
788;BME280;16074;42.708;23.312;2022-12-29T12:37:10;142061.84;;;15.52;50.57
788;BME280;16074;42.708;23.312;2022-12-29T12:39:52;142030.38;;;15.39;51.44
788;BME280;16074;42.708;23.312;2022-12-29T12:42:38;142003.78;;;15.28;51.52
788;BME280;16074;42.708;23.312;2022-12-29T12:45:27;141933.63;;;14.99;52.50
788;BME280;16074;42.708;23.312;2022-12-29T12:48:11;141873.16;;;14.74;53.89
788;BME280;16074;42.708;23.312;2022-12-29T12:50:52;141880.41;;;14.77;53.94
788;BME280;16074;42.708;23.312;2022-12-29T12:53:33;141863.47;;;14.70;54.21
788;BME280;16074;42.708;23.312;2022-12-29T12:56:20;141871.91;;;14.74;53.78
788;BME280;16074;42.708;23.312;2022-12-29T12:58:54;141819.94;;;14.52;54.50
788;BME280;16074;42.708;23.312;2022-12-29T13:01:39;141824.78;;;14.54;54.72
788;BME280;16074;42.708;23.312;2022-12-29T13:04:25;141817.53;;;14.51;54.92
788;BME280;16074;42.708;23.312;2022-12-29T13:07:02;141778.91;;;14.35;54.60
788;BME280;16074;42.708;23.312;2022-12-29T13:09:44;141771.66;;;14.32;55.58
788;BME280;16074;42.708;23.312;2022-12-29T13:12:28;141780.09;;;14.36;55.05
788;BME280;16074;42.708;23.312;2022-12-29T13:15:09;141772.81;;;14.33;55.23
788;BME280;16074;42.708;23.312;2022-12-29T13:17:44;141768.00;;;14.31;56.19
788;BME280;16074;42.708;23.312;2022-12-29T13:20:22;141778.91;;;14.35;56.35
788;BME280;16074;42.708;23.312;2022-12-29T13:22:59;141798.25;;;14.43;56.27
788;BME280;16074;42.708;23.312;2022-12-29T13:25:35;141828.44;;;14.56;55.40
788;BME280;16074;42.708;23.312;2022-12-29T13:28:12;141857.44;;;14.68;54.90
788;BME280;16074;42.708;23.312;2022-12-29T13:30:49;141863.47;;;14.70;55.49
788;BME280;16074;42.708;23.312;2022-12-29T13:33:27;141879.16;;;14.77;55.56
788;BME280;16074;42.708;23.312;2022-12-29T13:36:01;141886.44;;;14.80;55.20
788;BME280;16074;42.708;23.312;2022-12-29T13:38:35;141876.75;;;14.76;54.67
788;BME280;16074;42.708;23.312;2022-12-29T13:41:08;141857.44;;;14.68;54.74
788;BME280;16074;42.708;23.312;2022-12-29T13:43:40;141835.69;;;14.59;55.26
788;BME280;16074;42.708;23.312;2022-12-29T13:46:13;141803.03;;;14.45;55.98